Time,TemperatureF,DewpointF,PressureIn,WindDirection,WindDirectionDegrees,WindSpeedMPH,WindSpeedGustMPH,Humidity,HourlyPrecipIn,Conditions,Clouds,dailyrainin,SoftwareType,DateUTC
2013-02-22 00:01:00,37.9,31.7,30.09,WSW,247,0.0,-999.0,78,-99.99,,,0.00,Acu-Link.com,2013-02-22 08:01:00,
2013-02-22 00:16:00,37.8,31.6,30.09,WSW,247,2.2,-999.0,78,-99.99,,,0.00,Acu-Link.com,2013-02-22 08:16:00,
2013-02-22 00:31:00,37.8,31.6,30.09,WNW,292,1.7,-999.0,78,-99.99,,,0.00,Acu-Link.com,2013-02-22 08:31:00,
2013-02-22 00:47:00,37.8,31.6,30.10,NW,315,1.1,-999.0,78,-99.99,,,0.00,Acu-Link.com,2013-02-22 08:47:00,
2013-02-22 01:20:00,37.9,31.7,30.10,WSW,247,1.1,-999.0,78,-99.99,,,0.00,Acu-Link.com,2013-02-22 09:20:00,
2013-02-22 01:35:00,37.0,31.4,30.10,West,270,1.7,-999.0,80,-99.99,,,0.00,Acu-Link.com,2013-02-22 09:35:00,
2013-02-22 01:50:00,36.7,31.4,30.11,WSW,247,0.0,-999.0,81,-99.99,,,0.00,Acu-Link.com,2013-02-22 09:50:00,
2013-02-22 02:05:00,36.3,31.3,30.10,West,270,1.7,-999.0,82,-99.99,,,0.00,Acu-Link.com,2013-02-22 10:05:00,
2013-02-22 02:20:00,37.2,32.5,30.10,WNW,292,0.0,-999.0,83,-99.99,,,0.00,Acu-Link.com,2013-02-22 10:20:00,
2013-02-22 02:35:00,36.9,32.2,30.11,West,270,0.0,-999.0,83,-99.99,,,0.00,Acu-Link.com,2013-02-22 10:35:00,
2013-02-22 02:51:00,36.9,32.5,30.09,NW,315,2.7,-999.0,84,-99.99,,,0.00,Acu-Link.com,2013-02-22 10:51:00,
2013-02-22 03:06:00,36.7,32.3,30.09,WSW,247,0.0,-999.0,84,-99.99,,,0.00,Acu-Link.com,2013-02-22 11:06:00,
2013-02-22 03:21:00,36.1,31.7,30.10,SW,225,1.7,-999.0,84,-99.99,,,0.00,Acu-Link.com,2013-02-22 11:21:00,
2013-02-22 03:36:00,36.3,32.5,30.10,NNW,337,1.7,-999.0,86,-99.99,,,0.00,Acu-Link.com,2013-02-22 11:36:00,
2013-02-22 03:51:00,36.7,32.9,30.10,WNW,292,1.7,-999.0,86,-99.99,,,0.00,Acu-Link.com,2013-02-22 11:51:00,
2013-02-22 04:06:00,36.3,32.5,30.11,West,270,0.0,-999.0,86,-99.99,,,0.00,Acu-Link.com,2013-02-22 12:06:00,
2013-02-22 04:21:00,36.0,32.5,30.11,West,270,0.0,-999.0,87,-99.99,,,0.00,Acu-Link.com,2013-02-22 12:21:00,
2013-02-22 04:36:00,36.5,33.3,30.12,NW,315,1.7,-999.0,88,-99.99,,,0.00,Acu-Link.com,2013-02-22 12:36:00,
2013-02-22 04:51:00,36.7,33.5,30.12,West,270,0.0,-999.0,88,-99.99,,,0.00,Acu-Link.com,2013-02-22 12:51:00,
2013-02-22 05:07:00,36.0,32.8,30.12,West,270,0.0,-999.0,88,-99.99,,,0.00,Acu-Link.com,2013-02-22 13:07:00,
2013-02-22 05:22:00,36.0,33.1,30.11,NW,315,0.0,-999.0,89,-99.99,,,0.00,Acu-Link.com,2013-02-22 13:22:00,
2013-02-22 05:37:00,35.8,32.9,30.13,West,270,0.0,-999.0,89,-99.99,,,0.00,Acu-Link.com,2013-02-22 13:37:00,
2013-02-22 05:52:00,35.6,32.7,30.14,NW,315,0.0,-999.0,89,-99.99,,,0.00,Acu-Link.com,2013-02-22 13:52:00,
2013-02-22 06:07:00,35.4,32.8,30.14,WNW,292,0.0,-999.0,90,-99.99,,,0.00,Acu-Link.com,2013-02-22 14:07:00,
2013-02-22 06:22:00,35.6,33.0,30.15,NW,315,0.0,-999.0,90,-99.99,,,0.00,Acu-Link.com,2013-02-22 14:22:00,
2013-02-22 06:37:00,35.4,33.0,30.15,WSW,247,0.0,-999.0,91,-99.99,,,0.00,Acu-Link.com,2013-02-22 14:37:00,
2013-02-22 06:52:00,35.4,33.0,30.15,West,270,0.0,-999.0,91,-99.99,,,0.00,Acu-Link.com,2013-02-22 14:52:00,
2013-02-22 07:07:00,35.2,32.8,30.15,West,270,0.0,-999.0,91,-99.99,,,0.00,Acu-Link.com,2013-02-22 15:07:00,
2013-02-22 07:22:00,36.9,34.5,30.16,WSW,247,0.0,-999.0,91,-99.99,,,0.00,Acu-Link.com,2013-02-22 15:22:00,
2013-02-22 07:38:00,38.8,36.4,30.16,SW,225,0.0,-999.0,91,-99.99,,,0.00,Acu-Link.com,2013-02-22 15:38:00,
2013-02-22 07:53:00,42.1,37.9,30.17,WSW,247,0.0,-999.0,85,-99.99,,,0.00,Acu-Link.com,2013-02-22 15:53:00,
2013-02-22 08:08:00,45.5,39.7,30.17,ESE,112,0.0,-999.0,80,-99.99,,,0.00,Acu-Link.com,2013-02-22 16:08:00,
2013-02-22 08:23:00,48.4,40.5,30.17,ESE,112,0.0,-999.0,74,-99.99,,,0.00,Acu-Link.com,2013-02-22 16:23:00,
2013-02-22 08:38:00,50.5,40.3,30.17,ESE,112,2.2,-999.0,68,-99.99,,,0.00,Acu-Link.com,2013-02-22 16:38:00,
2013-02-22 08:53:00,51.3,39.1,30.17,ENE,67,2.7,-999.0,63,-99.99,,,0.00,Acu-Link.com,2013-02-22 16:53:00,
2013-02-22 09:08:00,53.8,41.5,30.17,South,180,1.7,-999.0,63,-99.99,,,0.00,Acu-Link.com,2013-02-22 17:08:00,
2013-02-22 09:23:00,54.7,41.5,30.17,NW,315,1.7,-999.0,61,-99.99,,,0.00,Acu-Link.com,2013-02-22 17:23:00,
2013-02-22 09:38:00,57.4,42.7,30.17,East,90,2.2,-999.0,58,-99.99,,,0.00,Acu-Link.com,2013-02-22 17:38:00,
2013-02-22 09:54:00,59.0,42.9,30.17,East,90,2.7,-999.0,55,-99.99,,,0.00,Acu-Link.com,2013-02-22 17:54:00,
2013-02-22 10:09:00,59.2,42.6,30.17,East,90,3.2,-999.0,54,-99.99,,,0.00,Acu-Link.com,2013-02-22 18:09:00,
2013-02-22 10:24:00,59.0,41.9,30.17,South,180,1.7,-999.0,53,-99.99,,,0.00,Acu-Link.com,2013-02-22 18:24:00,
2013-02-22 10:39:00,61.3,43.5,30.18,South,180,2.7,-999.0,52,-99.99,,,0.00,Acu-Link.com,2013-02-22 18:39:00,
2013-02-22 10:54:00,61.7,42.9,30.18,ENE,67,3.7,-999.0,50,-99.99,,,0.00,Acu-Link.com,2013-02-22 18:54:00,
2013-02-22 11:09:00,62.1,43.2,30.17,ENE,67,2.7,-999.0,50,-99.99,,,0.00,Acu-Link.com,2013-02-22 19:09:00,
2013-02-22 11:24:00,63.0,43.5,30.17,East,90,3.2,-999.0,49,-99.99,,,0.00,Acu-Link.com,2013-02-22 19:24:00,
2013-02-22 11:39:00,63.9,43.8,30.16,South,180,3.7,-999.0,48,-99.99,,,0.00,Acu-Link.com,2013-02-22 19:39:00,
2013-02-22 11:54:00,64.2,42.4,30.16,NE,45,2.7,-999.0,45,-99.99,,,0.00,Acu-Link.com,2013-02-22 19:54:00,
2013-02-22 12:10:00,66.4,42.0,30.16,East,90,4.2,-999.0,41,-99.99,,,0.00,Acu-Link.com,2013-02-22 20:10:00,
2013-02-22 12:25:00,64.9,41.3,30.15,SE,135,2.2,-999.0,42,-99.99,,,0.00,Acu-Link.com,2013-02-22 20:25:00,
2013-02-22 12:40:00,65.5,44.2,30.15,ESE,112,2.7,-999.0,46,-99.99,,,0.00,Acu-Link.com,2013-02-22 20:40:00,
2013-02-22 12:55:00,67.6,43.1,30.15,SE,135,4.2,-999.0,41,-99.99,,,0.00,Acu-Link.com,2013-02-22 20:55:00,
2013-02-22 13:10:00,65.8,40.2,30.14,ESE,112,4.7,-999.0,39,-99.99,,,0.00,Acu-Link.com,2013-02-22 21:10:00,
2013-02-22 13:25:00,66.6,42.8,30.13,ESE,112,4.7,-999.0,42,-99.99,,,0.00,Acu-Link.com,2013-02-22 21:25:00,
2013-02-22 13:40:00,66.7,44.7,30.12,NE,45,7.8,-999.0,45,-99.99,,,0.00,Acu-Link.com,2013-02-22 21:40:00,
2013-02-22 13:55:00,66.0,44.0,30.12,ESE,112,3.7,-999.0,45,-99.99,,,0.00,Acu-Link.com,2013-02-22 21:55:00,
2013-02-22 14:10:00,65.7,45.5,30.11,SE,135,4.7,-999.0,48,-99.99,,,0.00,Acu-Link.com,2013-02-22 22:10:00,
2013-02-22 14:26:00,67.1,46.7,30.11,NW,315,3.2,-999.0,48,-99.99,,,0.00,Acu-Link.com,2013-02-22 22:26:00,
2013-02-22 14:41:00,67.1,43.9,30.11,North,0,2.2,-999.0,43,-99.99,,,0.00,Acu-Link.com,2013-02-22 22:41:00,
2013-02-22 14:56:00,68.2,40.9,30.11,NW,315,1.7,-999.0,37,-99.99,,,0.00,Acu-Link.com,2013-02-22 22:56:00,
2013-02-22 15:11:00,67.1,37.8,30.11,ENE,67,1.7,-999.0,34,-99.99,,,0.00,Acu-Link.com,2013-02-22 23:11:00,
2013-02-22 15:26:00,66.6,37.4,30.12,SSW,202,2.2,-999.0,34,-99.99,,,0.00,Acu-Link.com,2013-02-22 23:26:00,
2013-02-22 15:41:00,66.2,37.0,30.11,SSW,202,3.7,-999.0,34,-99.99,,,0.00,Acu-Link.com,2013-02-22 23:41:00,
2013-02-22 15:56:00,66.6,37.4,30.11,SW,225,5.8,-999.0,34,-99.99,,,0.00,Acu-Link.com,2013-02-22 23:56:00,
2013-02-22 16:11:00,64.8,37.2,30.11,SW,225,5.3,-999.0,36,-99.99,,,0.00,Acu-Link.com,2013-02-23 00:11:00,
2013-02-22 16:26:00,62.6,37.9,30.12,South,180,2.7,-999.0,40,-99.99,,,0.00,Acu-Link.com,2013-02-23 00:26:00,
2013-02-22 16:42:00,59.9,40.2,30.12,SW,225,4.7,-999.0,48,-99.99,,,0.00,Acu-Link.com,2013-02-23 00:42:00,
2013-02-22 16:57:00,59.0,40.4,30.12,West,270,2.2,-999.0,50,-99.99,,,0.00,Acu-Link.com,2013-02-23 00:57:00,
2013-02-22 17:12:00,61.0,40.6,30.12,SW,225,2.7,-999.0,47,-99.99,,,0.00,Acu-Link.com,2013-02-23 01:12:00,
2013-02-22 17:27:00,59.9,40.2,30.11,NNW,337,2.7,-999.0,48,-99.99,,,0.00,Acu-Link.com,2013-02-23 01:27:00,
2013-02-22 17:42:00,57.7,40.2,30.11,NNE,22,0.0,-999.0,52,-99.99,,,0.00,Acu-Link.com,2013-02-23 01:42:00,
2013-02-22 17:57:00,55.0,39.1,30.11,NE,45,1.7,-999.0,55,-99.99,,,0.00,Acu-Link.com,2013-02-23 01:57:00,
2013-02-22 18:13:00,53.6,39.6,30.12,WNW,292,0.0,-999.0,59,-99.99,,,0.00,Acu-Link.com,2013-02-23 02:13:00,
2013-02-22 18:28:00,52.0,39.4,30.12,WSW,247,0.0,-999.0,62,-99.99,,,0.00,Acu-Link.com,2013-02-23 02:28:00,
2013-02-22 18:43:00,50.5,38.8,30.11,NE,45,0.0,-999.0,64,-99.99,,,0.00,Acu-Link.com,2013-02-23 02:43:00,
2013-02-22 18:58:00,49.1,38.6,30.12,West,270,2.2,-999.0,67,-99.99,,,0.00,Acu-Link.com,2013-02-23 02:58:00,
2013-02-22 19:13:00,48.4,39.1,30.13,WSW,247,1.7,-999.0,70,-99.99,,,0.00,Acu-Link.com,2013-02-23 03:13:00,
2013-02-22 19:28:00,47.7,40.2,30.14,SE,135,0.0,-999.0,75,-99.99,,,0.00,Acu-Link.com,2013-02-23 03:28:00,
2013-02-22 19:43:00,48.6,42.1,30.15,WNW,292,7.8,-999.0,78,-99.99,,,0.00,Acu-Link.com,2013-02-23 03:43:00,
2013-02-22 19:58:00,48.6,42.1,30.14,ESE,112,1.7,-999.0,78,-99.99,,,0.00,Acu-Link.com,2013-02-23 03:58:00,
2013-02-22 20:13:00,48.0,41.8,30.15,West,270,2.2,-999.0,79,-99.99,,,0.00,Acu-Link.com,2013-02-23 04:13:00,
2013-02-22 20:28:00,47.1,41.3,30.14,ENE,67,1.7,-999.0,80,-99.99,,,0.00,Acu-Link.com,2013-02-23 04:28:00,
2013-02-22 20:44:00,46.6,41.4,30.12,NNW,337,0.0,-999.0,82,-99.99,,,0.00,Acu-Link.com,2013-02-23 04:44:00,
2013-02-22 20:59:00,46.4,41.5,30.13,NNW,337,0.0,-999.0,83,-99.99,,,0.00,Acu-Link.com,2013-02-23 04:59:00,
2013-02-22 21:14:00,46.4,41.5,30.13,NNW,337,1.7,-999.0,83,-99.99,,,0.00,Acu-Link.com,2013-02-23 05:14:00,
2013-02-22 21:29:00,46.8,41.9,30.16,NW,315,1.1,-999.0,83,-99.99,,,0.00,Acu-Link.com,2013-02-23 05:29:00,
2013-02-22 21:44:00,46.4,41.8,30.17,SSW,202,1.7,-999.0,84,-99.99,,,0.00,Acu-Link.com,2013-02-23 05:44:00,
2013-02-22 21:59:00,46.2,41.9,30.17,West,270,1.1,-999.0,85,-99.99,,,0.00,Acu-Link.com,2013-02-23 05:59:00,
2013-02-22 22:15:00,46.6,42.3,30.16,SW,225,1.1,-999.0,85,-99.99,,,0.00,Acu-Link.com,2013-02-23 06:15:00,
2013-02-22 22:30:00,47.1,42.8,30.16,WNW,292,1.7,-999.0,85,-99.99,,,0.00,Acu-Link.com,2013-02-23 06:30:00,
2013-02-22 22:45:00,48.7,44.1,30.17,North,0,2.2,-999.0,84,-99.99,,,0.00,Acu-Link.com,2013-02-23 06:45:00,
2013-02-22 23:00:00,49.5,43.9,30.17,East,90,0.0,-999.0,81,-99.99,,,0.00,Acu-Link.com,2013-02-23 07:00:00,
2013-02-22 23:15:00,50.4,44.1,30.17,South,180,3.2,-999.0,79,-99.99,,,0.00,Acu-Link.com,2013-02-23 07:15:00,
2013-02-22 23:30:00,50.0,43.7,30.17,NNE,22,2.2,-999.0,79,-99.99,,,0.00,Acu-Link.com,2013-02-23 07:30:00,
2013-02-22 23:45:00,49.1,43.5,30.17,NE,45,2.2,-999.0,81,-99.99,,,0.00,Acu-Link.com,2013-02-23 07:45:00,